sensor_id;sensor_type;location;lat;lon;timestamp;P1;durP1;ratioP1;P2;durP2;ratioP2
18376;SDS011;9315;52.624;13.544;2022-12-18T00:01:27;71.20;;;20.33;;
18376;SDS011;9315;52.624;13.544;2022-12-18T00:04:02;88.47;;;21.07;;
18376;SDS011;9315;52.624;13.544;2022-12-18T00:06:32;75.53;;;18.97;;
18376;SDS011;9315;52.624;13.544;2022-12-18T00:09:00;73.93;;;18.20;;
18376;SDS011;9315;52.624;13.544;2022-12-18T00:11:29;64.70;;;17.50;;
18376;SDS011;9315;52.624;13.544;2022-12-18T00:13:58;81.73;;;16.83;;
18376;SDS011;9315;52.624;13.544;2022-12-18T00:16:26;76.23;;;16.77;;
18376;SDS011;9315;52.624;13.544;2022-12-18T00:18:56;55.63;;;14.77;;
18376;SDS011;9315;52.624;13.544;2022-12-18T00:21:26;105.40;;;16.80;;
18376;SDS011;9315;52.624;13.544;2022-12-18T00:23:55;59.37;;;15.43;;
18376;SDS011;9315;52.624;13.544;2022-12-18T00:26:25;62.83;;;16.07;;
18376;SDS011;9315;52.624;13.544;2022-12-18T00:28:59;57.37;;;15.47;;
18376;SDS011;9315;52.624;13.544;2022-12-18T00:31:31;60.53;;;17.23;;
18376;SDS011;9315;52.624;13.544;2022-12-18T00:33:58;67.03;;;17.93;;
18376;SDS011;9315;52.624;13.544;2022-12-18T00:36:30;67.80;;;16.90;;
18376;SDS011;9315;52.624;13.544;2022-12-18T00:39:01;58.97;;;15.97;;
18376;SDS011;9315;52.624;13.544;2022-12-18T00:41:31;73.73;;;17.13;;
18376;SDS011;9315;52.624;13.544;2022-12-18T00:44:17;65.67;;;14.63;;
18376;SDS011;9315;52.624;13.544;2022-12-18T00:46:46;52.43;;;15.07;;
18376;SDS011;9315;52.624;13.544;2022-12-18T00:49:15;54.27;;;15.97;;
18376;SDS011;9315;52.624;13.544;2022-12-18T00:51:45;56.20;;;16.37;;
18376;SDS011;9315;52.624;13.544;2022-12-18T00:54:13;63.70;;;16.50;;
18376;SDS011;9315;52.624;13.544;2022-12-18T00:56:40;66.77;;;18.53;;
18376;SDS011;9315;52.624;13.544;2022-12-18T00:59:15;62.30;;;18.07;;
18376;SDS011;9315;52.624;13.544;2022-12-18T01:01:44;68.27;;;18.07;;
18376;SDS011;9315;52.624;13.544;2022-12-18T01:04:13;59.20;;;16.33;;
18376;SDS011;9315;52.624;13.544;2022-12-18T01:06:40;60.90;;;17.73;;
18376;SDS011;9315;52.624;13.544;2022-12-18T01:09:07;70.67;;;19.47;;
18376;SDS011;9315;52.624;13.544;2022-12-18T01:11:34;70.87;;;20.43;;
18376;SDS011;9315;52.624;13.544;2022-12-18T01:14:01;79.07;;;20.53;;
18376;SDS011;9315;52.624;13.544;2022-12-18T01:16:29;86.63;;;18.57;;
18376;SDS011;9315;52.624;13.544;2022-12-18T01:18:56;76.83;;;20.10;;
18376;SDS011;9315;52.624;13.544;2022-12-18T01:21:23;77.07;;;20.07;;
18376;SDS011;9315;52.624;13.544;2022-12-18T01:23:51;85.57;;;20.60;;
18376;SDS011;9315;52.624;13.544;2022-12-18T01:26:21;71.20;;;18.97;;
18376;SDS011;9315;52.624;13.544;2022-12-18T01:28:49;96.07;;;21.83;;
18376;SDS011;9315;52.624;13.544;2022-12-18T01:33:56;167.13;;;25.10;;
18376;SDS011;9315;52.624;13.544;2022-12-18T01:36:27;90.00;;;20.17;;
18376;SDS011;9315;52.624;13.544;2022-12-18T01:39:02;145.33;;;24.50;;
18376;SDS011;9315;52.624;13.544;2022-12-18T01:41:38;89.63;;;21.60;;
18376;SDS011;9315;52.624;13.544;2022-12-18T01:53:19;102.13;;;25.10;;
18376;SDS011;9315;52.624;13.544;2022-12-18T01:55:50;108.53;;;24.50;;
18376;SDS011;9315;52.624;13.544;2022-12-18T01:58:35;94.57;;;22.43;;
18376;SDS011;9315;52.624;13.544;2022-12-18T02:01:31;109.13;;;23.40;;
18376;SDS011;9315;52.624;13.544;2022-12-18T02:10:19;110.70;;;23.40;;
18376;SDS011;9315;52.624;13.544;2022-12-18T02:26:30;91.00;;;22.13;;
18376;SDS011;9315;52.624;13.544;2022-12-18T02:29:12;98.17;;;23.40;;
18376;SDS011;9315;52.624;13.544;2022-12-18T02:31:49;129.30;;;24.60;;
18376;SDS011;9315;52.624;13.544;2022-12-18T02:34:22;126.50;;;25.13;;
18376;SDS011;9315;52.624;13.544;2022-12-18T02:36:56;93.67;;;21.90;;
18376;SDS011;9315;52.624;13.544;2022-12-18T02:39:27;87.37;;;19.53;;
18376;SDS011;9315;52.624;13.544;2022-12-18T02:41:57;116.47;;;22.83;;
18376;SDS011;9315;52.624;13.544;2022-12-18T02:44:25;81.40;;;22.50;;
18376;SDS011;9315;52.624;13.544;2022-12-18T02:46:52;89.07;;;21.60;;
18376;SDS011;9315;52.624;13.544;2022-12-18T02:52:35;92.73;;;20.53;;
18376;SDS011;9315;52.624;13.544;2022-12-18T02:56:54;83.97;;;19.57;;
18376;SDS011;9315;52.624;13.544;2022-12-18T02:59:18;107.70;;;20.77;;
18376;SDS011;9315;52.624;13.544;2022-12-18T03:01:58;123.80;;;22.07;;
18376;SDS011;9315;52.624;13.544;2022-12-18T03:05:09;91.07;;;21.33;;
18376;SDS011;9315;52.624;13.544;2022-12-18T03:07:55;128.63;;;23.20;;
18376;SDS011;9315;52.624;13.544;2022-12-18T03:10:31;87.63;;;20.90;;
18376;SDS011;9315;52.624;13.544;2022-12-18T03:13:08;88.80;;;20.00;;
18376;SDS011;9315;52.624;13.544;2022-12-18T03:15:50;90.00;;;21.30;;
18376;SDS011;9315;52.624;13.544;2022-12-18T03:18:23;111.20;;;22.10;;
18376;SDS011;9315;52.624;13.544;2022-12-18T03:21:21;78.00;;;20.13;;
18376;SDS011;9315;52.624;13.544;2022-12-18T03:23:58;70.37;;;17.97;;
18376;SDS011;9315;52.624;13.544;2022-12-18T03:26:26;70.73;;;19.13;;
18376;SDS011;9315;52.624;13.544;2022-12-18T03:28:57;76.93;;;18.90;;
18376;SDS011;9315;52.624;13.544;2022-12-18T03:31:32;71.87;;;18.53;;
18376;SDS011;9315;52.624;13.544;2022-12-18T03:34:04;74.80;;;18.87;;
18376;SDS011;9315;52.624;13.544;2022-12-18T03:36:40;68.70;;;17.27;;
18376;SDS011;9315;52.624;13.544;2022-12-18T03:39:07;73.77;;;18.93;;
18376;SDS011;9315;52.624;13.544;2022-12-18T03:41:44;75.87;;;19.83;;
18376;SDS011;9315;52.624;13.544;2022-12-18T03:44:39;74.43;;;19.33;;
18376;SDS011;9315;52.624;13.544;2022-12-18T03:47:55;75.20;;;17.63;;
18376;SDS011;9315;52.624;13.544;2022-12-18T03:51:05;54.80;;;17.13;;
18376;SDS011;9315;52.624;13.544;2022-12-18T03:54:00;67.17;;;16.70;;
18376;SDS011;9315;52.624;13.544;2022-12-18T03:56:32;49.97;;;15.00;;
18376;SDS011;9315;52.624;13.544;2022-12-18T03:59:06;49.27;;;14.43;;
18376;SDS011;9315;52.624;13.544;2022-12-18T04:01:40;50.53;;;14.00;;
18376;SDS011;9315;52.624;13.544;2022-12-18T04:04:14;59.50;;;16.33;;
18376;SDS011;9315;52.624;13.544;2022-12-18T04:06:43;62.30;;;17.33;;
18376;SDS011;9315;52.624;13.544;2022-12-18T04:09:14;56.53;;;16.00;;
18376;SDS011;9315;52.624;13.544;2022-12-18T04:11:42;67.87;;;15.30;;
18376;SDS011;9315;52.624;13.544;2022-12-18T04:14:10;68.43;;;17.87;;
18376;SDS011;9315;52.624;13.544;2022-12-18T04:16:43;66.87;;;17.40;;
18376;SDS011;9315;52.624;13.544;2022-12-18T04:19:10;75.33;;;19.90;;
18376;SDS011;9315;52.624;13.544;2022-12-18T04:21:38;61.53;;;18.17;;
18376;SDS011;9315;52.624;13.544;2022-12-18T04:24:05;70.30;;;18.33;;
18376;SDS011;9315;52.624;13.544;2022-12-18T04:26:32;62.03;;;17.37;;
18376;SDS011;9315;52.624;13.544;2022-12-18T04:29:00;66.40;;;17.67;;
18376;SDS011;9315;52.624;13.544;2022-12-18T04:31:27;65.27;;;17.83;;
18376;SDS011;9315;52.624;13.544;2022-12-18T04:33:54;68.87;;;17.63;;
18376;SDS011;9315;52.624;13.544;2022-12-18T04:36:21;55.77;;;16.70;;
18376;SDS011;9315;52.624;13.544;2022-12-18T04:38:48;61.37;;;15.57;;
18376;SDS011;9315;52.624;13.544;2022-12-18T04:41:15;69.23;;;17.93;;
18376;SDS011;9315;52.624;13.544;2022-12-18T04:43:43;67.27;;;16.40;;
18376;SDS011;9315;52.624;13.544;2022-12-18T04:46:10;47.43;;;15.30;;
18376;SDS011;9315;52.624;13.544;2022-12-18T04:48:37;57.60;;;17.33;;
18376;SDS011;9315;52.624;13.544;2022-12-18T04:51:04;65.83;;;16.80;;
18376;SDS011;9315;52.624;13.544;2022-12-18T04:53:32;60.80;;;17.70;;
18376;SDS011;9315;52.624;13.544;2022-12-18T04:58:37;50.77;;;14.53;;
18376;SDS011;9315;52.624;13.544;2022-12-18T05:01:06;53.90;;;15.67;;
18376;SDS011;9315;52.624;13.544;2022-12-18T05:03:34;59.27;;;15.27;;
18376;SDS011;9315;52.624;13.544;2022-12-18T05:06:03;53.77;;;14.90;;
18376;SDS011;9315;52.624;13.544;2022-12-18T05:08:32;57.13;;;16.20;;
18376;SDS011;9315;52.624;13.544;2022-12-18T05:13:31;55.67;;;15.43;;
18376;SDS011;9315;52.624;13.544;2022-12-18T05:16:00;54.77;;;16.03;;
18376;SDS011;9315;52.624;13.544;2022-12-18T05:18:28;61.43;;;16.07;;
18376;SDS011;9315;52.624;13.544;2022-12-18T05:20:56;59.23;;;15.87;;
18376;SDS011;9315;52.624;13.544;2022-12-18T05:23:24;50.03;;;15.43;;
18376;SDS011;9315;52.624;13.544;2022-12-18T05:28:29;48.90;;;14.53;;
18376;SDS011;9315;52.624;13.544;2022-12-18T05:30:59;49.47;;;15.30;;
18376;SDS011;9315;52.624;13.544;2022-12-18T05:33:30;55.27;;;15.67;;
18376;SDS011;9315;52.624;13.544;2022-12-18T05:36:00;49.83;;;13.93;;
18376;SDS011;9315;52.624;13.544;2022-12-18T05:38:31;53.03;;;14.73;;
18376;SDS011;9315;52.624;13.544;2022-12-18T05:41:01;52.47;;;15.47;;
18376;SDS011;9315;52.624;13.544;2022-12-18T05:43:29;51.53;;;14.57;;
18376;SDS011;9315;52.624;13.544;2022-12-18T05:46:02;51.63;;;15.40;;
18376;SDS011;9315;52.624;13.544;2022-12-18T05:48:43;59.00;;;15.27;;
18376;SDS011;9315;52.624;13.544;2022-12-18T05:51:12;52.43;;;15.30;;
18376;SDS011;9315;52.624;13.544;2022-12-18T05:53:43;48.43;;;15.63;;
18376;SDS011;9315;52.624;13.544;2022-12-18T05:56:12;53.93;;;14.83;;
18376;SDS011;9315;52.624;13.544;2022-12-18T05:58:44;61.20;;;17.27;;
18376;SDS011;9315;52.624;13.544;2022-12-18T06:01:13;53.70;;;14.73;;
18376;SDS011;9315;52.624;13.544;2022-12-18T06:03:49;56.93;;;14.83;;
18376;SDS011;9315;52.624;13.544;2022-12-18T06:06:17;52.40;;;15.40;;
18376;SDS011;9315;52.624;13.544;2022-12-18T06:08:51;54.17;;;15.83;;
18376;SDS011;9315;52.624;13.544;2022-12-18T06:11:20;52.27;;;15.33;;
18376;SDS011;9315;52.624;13.544;2022-12-18T06:13:51;54.90;;;15.57;;
18376;SDS011;9315;52.624;13.544;2022-12-18T06:16:24;54.03;;;15.67;;
18376;SDS011;9315;52.624;13.544;2022-12-18T06:18:55;52.73;;;16.67;;
18376;SDS011;9315;52.624;13.544;2022-12-18T06:21:27;57.70;;;15.83;;
18376;SDS011;9315;52.624;13.544;2022-12-18T06:23:56;61.13;;;15.70;;
18376;SDS011;9315;52.624;13.544;2022-12-18T06:26:24;48.13;;;14.20;;
18376;SDS011;9315;52.624;13.544;2022-12-18T06:28:53;59.33;;;16.17;;
18376;SDS011;9315;52.624;13.544;2022-12-18T06:31:21;68.03;;;15.43;;
18376;SDS011;9315;52.624;13.544;2022-12-18T06:33:48;53.47;;;15.47;;
18376;SDS011;9315;52.624;13.544;2022-12-18T06:36:15;52.13;;;14.70;;
18376;SDS011;9315;52.624;13.544;2022-12-18T06:38:43;51.17;;;14.10;;
18376;SDS011;9315;52.624;13.544;2022-12-18T06:41:12;50.07;;;14.47;;
18376;SDS011;9315;52.624;13.544;2022-12-18T06:43:44;53.23;;;14.57;;
18376;SDS011;9315;52.624;13.544;2022-12-18T06:46:11;51.67;;;13.93;;
18376;SDS011;9315;52.624;13.544;2022-12-18T06:48:39;55.77;;;15.13;;
18376;SDS011;9315;52.624;13.544;2022-12-18T06:51:06;56.20;;;16.67;;
18376;SDS011;9315;52.624;13.544;2022-12-18T06:53:33;63.03;;;16.60;;
18376;SDS011;9315;52.624;13.544;2022-12-18T06:56:01;48.90;;;13.23;;
18376;SDS011;9315;52.624;13.544;2022-12-18T06:58:36;50.40;;;15.20;;
18376;SDS011;9315;52.624;13.544;2022-12-18T07:01:06;51.90;;;16.10;;
18376;SDS011;9315;52.624;13.544;2022-12-18T07:03:37;54.13;;;13.57;;
18376;SDS011;9315;52.624;13.544;2022-12-18T07:06:12;42.37;;;13.33;;
18376;SDS011;9315;52.624;13.544;2022-12-18T07:08:43;49.53;;;13.50;;
18376;SDS011;9315;52.624;13.544;2022-12-18T07:11:12;51.90;;;13.53;;
18376;SDS011;9315;52.624;13.544;2022-12-18T07:13:39;51.17;;;13.77;;
18376;SDS011;9315;52.624;13.544;2022-12-18T07:16:11;57.77;;;15.13;;
18376;SDS011;9315;52.624;13.544;2022-12-18T07:18:51;50.13;;;14.03;;
18376;SDS011;9315;52.624;13.544;2022-12-18T07:21:21;45.70;;;14.10;;
18376;SDS011;9315;52.624;13.544;2022-12-18T07:23:49;58.60;;;15.17;;
18376;SDS011;9315;52.624;13.544;2022-12-18T07:26:18;44.57;;;12.13;;
18376;SDS011;9315;52.624;13.544;2022-12-18T07:28:47;45.43;;;13.87;;
18376;SDS011;9315;52.624;13.544;2022-12-18T07:31:19;62.10;;;15.73;;
18376;SDS011;9315;52.624;13.544;2022-12-18T07:33:48;48.97;;;13.77;;
18376;SDS011;9315;52.624;13.544;2022-12-18T07:36:17;46.80;;;13.60;;
18376;SDS011;9315;52.624;13.544;2022-12-18T07:38:46;50.87;;;14.63;;
18376;SDS011;9315;52.624;13.544;2022-12-18T07:41:15;45.03;;;13.90;;
18376;SDS011;9315;52.624;13.544;2022-12-18T07:43:44;53.20;;;13.80;;
18376;SDS011;9315;52.624;13.544;2022-12-18T07:46:12;53.70;;;15.50;;
18376;SDS011;9315;52.624;13.544;2022-12-18T07:48:42;49.13;;;14.27;;
18376;SDS011;9315;52.624;13.544;2022-12-18T07:51:14;54.93;;;15.07;;
18376;SDS011;9315;52.624;13.544;2022-12-18T07:53:43;46.80;;;14.03;;
18376;SDS011;9315;52.624;13.544;2022-12-18T07:56:11;42.70;;;12.80;;
18376;SDS011;9315;52.624;13.544;2022-12-18T07:58:56;47.40;;;14.27;;
18376;SDS011;9315;52.624;13.544;2022-12-18T08:01:24;37.77;;;11.87;;
18376;SDS011;9315;52.624;13.544;2022-12-18T08:03:52;45.03;;;13.80;;
18376;SDS011;9315;52.624;13.544;2022-12-18T08:06:20;49.57;;;14.83;;
18376;SDS011;9315;52.624;13.544;2022-12-18T08:08:53;38.33;;;12.87;;
18376;SDS011;9315;52.624;13.544;2022-12-18T08:11:22;54.03;;;15.87;;
18376;SDS011;9315;52.624;13.544;2022-12-18T08:13:52;44.67;;;13.63;;
18376;SDS011;9315;52.624;13.544;2022-12-18T08:16:20;49.13;;;14.33;;
18376;SDS011;9315;52.624;13.544;2022-12-18T08:18:48;35.37;;;12.67;;
18376;SDS011;9315;52.624;13.544;2022-12-18T08:21:19;39.83;;;12.93;;
18376;SDS011;9315;52.624;13.544;2022-12-18T08:23:51;38.60;;;11.90;;
18376;SDS011;9315;52.624;13.544;2022-12-18T08:26:23;36.73;;;11.67;;
18376;SDS011;9315;52.624;13.544;2022-12-18T08:28:54;48.00;;;13.30;;
18376;SDS011;9315;52.624;13.544;2022-12-18T08:31:23;49.17;;;15.20;;
18376;SDS011;9315;52.624;13.544;2022-12-18T08:33:53;56.33;;;14.83;;
18376;SDS011;9315;52.624;13.544;2022-12-18T08:36:22;47.50;;;14.80;;
18376;SDS011;9315;52.624;13.544;2022-12-18T08:38:51;43.93;;;14.57;;
18376;SDS011;9315;52.624;13.544;2022-12-18T08:41:19;46.77;;;13.40;;
18376;SDS011;9315;52.624;13.544;2022-12-18T08:43:47;45.57;;;15.07;;
18376;SDS011;9315;52.624;13.544;2022-12-18T08:46:39;55.27;;;15.97;;
18376;SDS011;9315;52.624;13.544;2022-12-18T08:49:10;51.47;;;15.40;;
18376;SDS011;9315;52.624;13.544;2022-12-18T08:51:39;50.00;;;15.77;;
18376;SDS011;9315;52.624;13.544;2022-12-18T08:54:07;56.27;;;15.13;;
18376;SDS011;9315;52.624;13.544;2022-12-18T08:56:39;53.97;;;15.97;;
18376;SDS011;9315;52.624;13.544;2022-12-18T08:59:11;49.67;;;14.87;;
18376;SDS011;9315;52.624;13.544;2022-12-18T09:01:45;45.20;;;13.30;;
18376;SDS011;9315;52.624;13.544;2022-12-18T09:04:13;49.87;;;15.10;;
18376;SDS011;9315;52.624;13.544;2022-12-18T09:06:40;51.77;;;15.90;;
18376;SDS011;9315;52.624;13.544;2022-12-18T09:09:08;47.37;;;14.93;;
18376;SDS011;9315;52.624;13.544;2022-12-18T09:11:36;49.37;;;15.50;;
18376;SDS011;9315;52.624;13.544;2022-12-18T09:14:03;55.80;;;14.00;;
18376;SDS011;9315;52.624;13.544;2022-12-18T09:16:31;51.27;;;14.43;;
18376;SDS011;9315;52.624;13.544;2022-12-18T09:19:02;57.43;;;14.57;;
18376;SDS011;9315;52.624;13.544;2022-12-18T09:21:31;49.30;;;13.87;;
18376;SDS011;9315;52.624;13.544;2022-12-18T09:24:02;43.90;;;13.73;;
18376;SDS011;9315;52.624;13.544;2022-12-18T09:26:34;42.53;;;13.23;;
18376;SDS011;9315;52.624;13.544;2022-12-18T09:29:02;49.93;;;14.83;;
18376;SDS011;9315;52.624;13.544;2022-12-18T09:31:29;48.93;;;14.97;;
18376;SDS011;9315;52.624;13.544;2022-12-18T09:33:57;50.20;;;14.30;;
18376;SDS011;9315;52.624;13.544;2022-12-18T09:36:24;48.77;;;15.60;;
18376;SDS011;9315;52.624;13.544;2022-12-18T09:38:52;49.20;;;14.23;;
18376;SDS011;9315;52.624;13.544;2022-12-18T09:47:23;50.60;;;15.63;;
18376;SDS011;9315;52.624;13.544;2022-12-18T09:50:04;61.57;;;16.17;;
18376;SDS011;9315;52.624;13.544;2022-12-18T09:52:59;47.57;;;14.17;;
18376;SDS011;9315;52.624;13.544;2022-12-18T09:55:37;52.87;;;16.67;;
18376;SDS011;9315;52.624;13.544;2022-12-18T10:00:53;56.10;;;17.97;;
18376;SDS011;9315;52.624;13.544;2022-12-18T10:03:21;52.97;;;14.83;;
18376;SDS011;9315;52.624;13.544;2022-12-18T10:06:22;56.77;;;15.07;;
18376;SDS011;9315;52.624;13.544;2022-12-18T10:09:03;55.90;;;15.60;;
18376;SDS011;9315;52.624;13.544;2022-12-18T10:20:38;50.90;;;14.43;;
18376;SDS011;9315;52.624;13.544;2022-12-18T10:23:39;50.63;;;14.80;;
18376;SDS011;9315;52.624;13.544;2022-12-18T10:26:40;60.00;;;16.07;;
18376;SDS011;9315;52.624;13.544;2022-12-18T10:29:09;54.63;;;17.33;;
18376;SDS011;9315;52.624;13.544;2022-12-18T10:31:40;61.43;;;18.27;;
18376;SDS011;9315;52.624;13.544;2022-12-18T10:34:11;56.50;;;15.87;;
18376;SDS011;9315;52.624;13.544;2022-12-18T10:36:42;57.97;;;15.33;;
18376;SDS011;9315;52.624;13.544;2022-12-18T10:39:17;54.07;;;15.50;;
18376;SDS011;9315;52.624;13.544;2022-12-18T10:41:49;55.83;;;14.50;;
18376;SDS011;9315;52.624;13.544;2022-12-18T10:44:25;51.67;;;15.47;;
18376;SDS011;9315;52.624;13.544;2022-12-18T10:46:54;49.93;;;15.27;;
18376;SDS011;9315;52.624;13.544;2022-12-18T10:49:37;48.00;;;14.13;;
18376;SDS011;9315;52.624;13.544;2022-12-18T10:52:19;50.53;;;15.30;;
18376;SDS011;9315;52.624;13.544;2022-12-18T10:54:49;58.23;;;15.40;;
18376;SDS011;9315;52.624;13.544;2022-12-18T11:00:28;43.13;;;13.73;;
18376;SDS011;9315;52.624;13.544;2022-12-18T11:02:56;48.67;;;13.00;;
18376;SDS011;9315;52.624;13.544;2022-12-18T11:05:30;47.43;;;13.90;;
18376;SDS011;9315;52.624;13.544;2022-12-18T11:08:00;47.63;;;14.73;;
18376;SDS011;9315;52.624;13.544;2022-12-18T11:10:28;53.13;;;15.00;;
18376;SDS011;9315;52.624;13.544;2022-12-18T11:15:47;54.20;;;15.97;;
18376;SDS011;9315;52.624;13.544;2022-12-18T11:18:20;46.33;;;13.43;;
18376;SDS011;9315;52.624;13.544;2022-12-18T11:23:43;43.57;;;13.57;;
18376;SDS011;9315;52.624;13.544;2022-12-18T11:26:18;47.03;;;14.80;;
18376;SDS011;9315;52.624;13.544;2022-12-18T11:28:51;45.60;;;14.20;;
18376;SDS011;9315;52.624;13.544;2022-12-18T11:31:35;43.73;;;14.00;;
18376;SDS011;9315;52.624;13.544;2022-12-18T11:36:54;41.43;;;13.70;;
18376;SDS011;9315;52.624;13.544;2022-12-18T11:39:31;39.83;;;12.93;;
18376;SDS011;9315;52.624;13.544;2022-12-18T11:47:42;39.30;;;12.37;;
18376;SDS011;9315;52.624;13.544;2022-12-18T11:50:51;35.80;;;11.97;;
18376;SDS011;9315;52.624;13.544;2022-12-18T11:53:25;40.50;;;12.50;;
18376;SDS011;9315;52.624;13.544;2022-12-18T11:58:47;31.67;;;10.10;;
18376;SDS011;9315;52.624;13.544;2022-12-18T12:01:46;37.10;;;13.23;;
18376;SDS011;9315;52.624;13.544;2022-12-18T12:08:16;35.63;;;12.90;;
18376;SDS011;9315;52.624;13.544;2022-12-18T12:12:10;27.23;;;9.90;;
18376;SDS011;9315;52.624;13.544;2022-12-18T12:30:21;28.67;;;10.77;;
18376;SDS011;9315;52.624;13.544;2022-12-18T12:33:22;29.90;;;10.40;;
18376;SDS011;9315;52.624;13.544;2022-12-18T12:39:53;26.97;;;9.67;;
18376;SDS011;9315;52.624;13.544;2022-12-18T12:42:32;26.73;;;10.60;;
18376;SDS011;9315;52.624;13.544;2022-12-18T12:45:32;31.57;;;10.83;;
18376;SDS011;9315;52.624;13.544;2022-12-18T12:54:03;28.20;;;10.30;;
18376;SDS011;9315;52.624;13.544;2022-12-18T13:06:19;27.40;;;8.90;;
18376;SDS011;9315;52.624;13.544;2022-12-18T13:08:57;29.37;;;9.67;;
18376;SDS011;9315;52.624;13.544;2022-12-18T13:11:45;29.43;;;9.47;;
18376;SDS011;9315;52.624;13.544;2022-12-18T13:14:33;28.17;;;9.93;;
18376;SDS011;9315;52.624;13.544;2022-12-18T13:20:03;25.97;;;10.70;;
18376;SDS011;9315;52.624;13.544;2022-12-18T13:22:43;29.57;;;10.53;;
18376;SDS011;9315;52.624;13.544;2022-12-18T13:28:09;29.70;;;10.83;;
18376;SDS011;9315;52.624;13.544;2022-12-18T13:36:32;34.40;;;10.93;;
18376;SDS011;9315;52.624;13.544;2022-12-18T13:44:37;26.30;;;10.03;;
18376;SDS011;9315;52.624;13.544;2022-12-18T13:47:27;30.67;;;12.13;;
18376;SDS011;9315;52.624;13.544;2022-12-18T13:50:09;29.83;;;12.07;;
18376;SDS011;9315;52.624;13.544;2022-12-18T13:53:00;29.73;;;11.73;;
18376;SDS011;9315;52.624;13.544;2022-12-18T13:55:29;32.87;;;11.73;;
18376;SDS011;9315;52.624;13.544;2022-12-18T13:58:05;39.67;;;15.77;;
18376;SDS011;9315;52.624;13.544;2022-12-18T14:00:33;35.93;;;14.40;;
18376;SDS011;9315;52.624;13.544;2022-12-18T14:03:00;35.83;;;13.37;;
18376;SDS011;9315;52.624;13.544;2022-12-18T14:05:32;36.77;;;13.50;;
18376;SDS011;9315;52.624;13.544;2022-12-18T14:08:06;34.77;;;12.47;;
18376;SDS011;9315;52.624;13.544;2022-12-18T14:10:42;30.37;;;12.97;;
18376;SDS011;9315;52.624;13.544;2022-12-18T14:13:17;29.67;;;10.23;;
18376;SDS011;9315;52.624;13.544;2022-12-18T14:16:06;33.03;;;12.50;;
18376;SDS011;9315;52.624;13.544;2022-12-18T14:18:53;34.70;;;13.37;;
18376;SDS011;9315;52.624;13.544;2022-12-18T14:21:49;32.57;;;12.07;;
18376;SDS011;9315;52.624;13.544;2022-12-18T14:24:18;38.93;;;14.23;;
18376;SDS011;9315;52.624;13.544;2022-12-18T14:26:48;40.53;;;14.90;;
18376;SDS011;9315;52.624;13.544;2022-12-18T14:32:10;41.80;;;15.07;;
18376;SDS011;9315;52.624;13.544;2022-12-18T14:34:50;45.57;;;15.37;;
18376;SDS011;9315;52.624;13.544;2022-12-18T14:37:25;36.97;;;13.87;;
18376;SDS011;9315;52.624;13.544;2022-12-18T14:42:23;39.00;;;13.50;;
18376;SDS011;9315;52.624;13.544;2022-12-18T14:48:08;39.77;;;15.77;;
18376;SDS011;9315;52.624;13.544;2022-12-18T14:51:02;35.20;;;13.43;;
18376;SDS011;9315;52.624;13.544;2022-12-18T14:53:44;37.60;;;13.23;;
18376;SDS011;9315;52.624;13.544;2022-12-18T14:56:21;36.27;;;15.97;;
18376;SDS011;9315;52.624;13.544;2022-12-18T14:59:06;32.50;;;11.30;;
18376;SDS011;9315;52.624;13.544;2022-12-18T15:05:03;38.13;;;15.50;;
18376;SDS011;9315;52.624;13.544;2022-12-18T15:07:49;42.83;;;14.57;;
18376;SDS011;9315;52.624;13.544;2022-12-18T15:18:00;36.03;;;13.90;;
18376;SDS011;9315;52.624;13.544;2022-12-18T15:26:04;34.50;;;13.93;;
18376;SDS011;9315;52.624;13.544;2022-12-18T15:31:34;36.30;;;12.67;;
18376;SDS011;9315;52.624;13.544;2022-12-18T15:36:46;36.03;;;12.87;;
18376;SDS011;9315;52.624;13.544;2022-12-18T15:39:14;34.30;;;13.40;;
18376;SDS011;9315;52.624;13.544;2022-12-18T15:41:41;37.87;;;13.17;;
18376;SDS011;9315;52.624;13.544;2022-12-18T15:44:28;36.87;;;15.00;;
18376;SDS011;9315;52.624;13.544;2022-12-18T15:46:56;42.63;;;15.63;;
18376;SDS011;9315;52.624;13.544;2022-12-18T15:49:24;34.20;;;14.37;;
18376;SDS011;9315;52.624;13.544;2022-12-18T15:51:52;23.37;;;10.40;;
18376;SDS011;9315;52.624;13.544;2022-12-18T15:54:23;31.57;;;13.23;;
18376;SDS011;9315;52.624;13.544;2022-12-18T15:57:10;36.50;;;13.47;;
18376;SDS011;9315;52.624;13.544;2022-12-18T15:59:56;30.87;;;12.67;;
18376;SDS011;9315;52.624;13.544;2022-12-18T16:02:24;32.90;;;12.83;;
18376;SDS011;9315;52.624;13.544;2022-12-18T16:04:52;34.27;;;13.70;;
18376;SDS011;9315;52.624;13.544;2022-12-18T16:07:20;34.43;;;13.63;;
18376;SDS011;9315;52.624;13.544;2022-12-18T16:09:51;34.37;;;13.43;;
18376;SDS011;9315;52.624;13.544;2022-12-18T16:12:21;32.27;;;13.10;;
18376;SDS011;9315;52.624;13.544;2022-12-18T16:14:49;30.27;;;11.77;;
18376;SDS011;9315;52.624;13.544;2022-12-18T16:17:16;36.27;;;14.10;;
18376;SDS011;9315;52.624;13.544;2022-12-18T16:19:44;36.17;;;13.90;;
18376;SDS011;9315;52.624;13.544;2022-12-18T16:22:19;35.43;;;13.80;;
18376;SDS011;9315;52.624;13.544;2022-12-18T16:24:50;37.40;;;14.90;;
18376;SDS011;9315;52.624;13.544;2022-12-18T16:27:20;34.70;;;12.93;;
18376;SDS011;9315;52.624;13.544;2022-12-18T16:29:49;32.53;;;13.50;;
18376;SDS011;9315;52.624;13.544;2022-12-18T16:32:17;31.47;;;13.17;;
18376;SDS011;9315;52.624;13.544;2022-12-18T16:34:49;32.97;;;13.33;;
18376;SDS011;9315;52.624;13.544;2022-12-18T16:37:16;39.80;;;15.97;;
18376;SDS011;9315;52.624;13.544;2022-12-18T16:39:43;32.80;;;13.00;;
18376;SDS011;9315;52.624;13.544;2022-12-18T16:42:12;37.30;;;13.90;;
18376;SDS011;9315;52.624;13.544;2022-12-18T16:44:46;35.83;;;15.00;;
18376;SDS011;9315;52.624;13.544;2022-12-18T16:47:15;35.33;;;13.20;;
18376;SDS011;9315;52.624;13.544;2022-12-18T16:49:44;33.90;;;15.47;;
18376;SDS011;9315;52.624;13.544;2022-12-18T16:52:11;34.33;;;13.70;;
18376;SDS011;9315;52.624;13.544;2022-12-18T16:54:39;31.50;;;13.83;;
18376;SDS011;9315;52.624;13.544;2022-12-18T16:57:08;37.80;;;14.47;;
18376;SDS011;9315;52.624;13.544;2022-12-18T16:59:40;30.40;;;13.23;;
18376;SDS011;9315;52.624;13.544;2022-12-18T17:02:14;33.10;;;14.00;;
18376;SDS011;9315;52.624;13.544;2022-12-18T17:04:51;33.83;;;16.10;;
18376;SDS011;9315;52.624;13.544;2022-12-18T17:07:23;30.67;;;12.30;;
18376;SDS011;9315;52.624;13.544;2022-12-18T17:09:52;37.50;;;13.67;;
18376;SDS011;9315;52.624;13.544;2022-12-18T17:12:19;38.00;;;14.57;;
18376;SDS011;9315;52.624;13.544;2022-12-18T17:14:47;33.13;;;14.00;;
18376;SDS011;9315;52.624;13.544;2022-12-18T17:17:15;31.10;;;12.73;;
18376;SDS011;9315;52.624;13.544;2022-12-18T17:19:48;42.93;;;15.37;;
18376;SDS011;9315;52.624;13.544;2022-12-18T17:22:17;35.07;;;14.63;;
18376;SDS011;9315;52.624;13.544;2022-12-18T17:24:46;37.83;;;14.87;;
18376;SDS011;9315;52.624;13.544;2022-12-18T17:27:13;34.63;;;15.80;;
18376;SDS011;9315;52.624;13.544;2022-12-18T17:29:40;32.87;;;14.17;;
18376;SDS011;9315;52.624;13.544;2022-12-18T17:32:13;40.90;;;15.30;;
18376;SDS011;9315;52.624;13.544;2022-12-18T17:34:42;36.80;;;14.27;;
18376;SDS011;9315;52.624;13.544;2022-12-18T17:37:09;33.00;;;14.07;;
18376;SDS011;9315;52.624;13.544;2022-12-18T17:39:36;38.97;;;14.63;;
18376;SDS011;9315;52.624;13.544;2022-12-18T17:42:03;31.50;;;13.43;;
18376;SDS011;9315;52.624;13.544;2022-12-18T17:44:32;32.10;;;13.53;;